Hovedside
METAR-TAF:

METAR-TAF

Lufthavner :

Ambon, Indonesia

breddegrad: 03-42S, lengdegrad: 128-05E, høyde over havet: 12 m

Gjeldene værobservasjon

Denne rapporten ble laget for 50 minutter siden, klokken 01:30 UTC
Vind 2 kt fra skiftende retning
Temperatur 24°C
Luftfuktighet 100%
Trykk 1012 hPa
Sikt: 1000 m
Spredte skyer i en høyde av 1600 ft
lett regn,

METAR: WAPP 220130Z VRB02KT 1000 -RA SCT016 24/24 Q1012 NOSIG

Tid: 11:20 (02:20 UTC)

Varsel

Denne rapporten ble laget for 3 timer og 20 minutter siden, klokken 23:00 UTC
Varsel gyldig fra 22. klokken 00 UTC til 22. klokken 24 UTC
Vind 5 kt fra Sør-sørvest
Sikt: 6000 m
Spredte skyer i en høyde av 1600 ft
lett regn
Blir
fra 22. klokken 11 UTC til 22. klokken 13 UTC
Vind 5 kt fra Nord

TAF: WAPP 212300Z 2200/2224 21005KT 6000 -RA SCT016 BECMG 2211/2213 35005KT

Værobservasjoner og værvarsel for over 4000 flyplasser (METAR- og TAF-rapporter).

Tilgjengelige stasjoner er representert av de røde og gule prikkene på kartet.

Hold musepekeren over prikken for å se navnet på stasjonen.

Klikk så for å se værobservasjoner og -varsler.

For å forandre kartet kan du klikke på den grønne knappen med svart kryss for å zoome inn, på den grønne knappen med strek for å zoome ut, eller på de grønne pilene for å se tilstøtende kart.


METAR-TAF: